createdAt,value
2023-11-18T00:00:06.709Z,99.04
2023-11-18T00:05:29.014Z,99.25
2023-11-18T00:10:31.558Z,99.45
2023-11-18T00:15:36.594Z,99.37
2023-11-18T00:20:38.978Z,99.12
2023-11-18T00:25:41.839Z,99.21
2023-11-18T00:30:44.659Z,99.38
2023-11-18T00:36:08.091Z,99.43
2023-11-18T00:41:10.399Z,99.39
2023-11-18T00:46:12.885Z,99.51
2023-11-18T00:51:15.236Z,99.46
2023-11-18T00:56:19.377Z,99.15
2023-11-18T01:01:22.896Z,99.32
2023-11-18T01:06:25.197Z,99.32
2023-11-18T01:11:28.856Z,99.74
2023-11-18T01:16:31.322Z,99.77
2023-11-18T01:21:33.704Z,99.41
2023-11-18T01:26:52.953Z,99.35
2023-11-18T01:31:57.613Z,98.94
2023-11-18T01:37:00.317Z,98.93
2023-11-18T01:42:05.459Z,98.97
2023-11-18T01:48:07.591Z,99.05
2023-11-18T01:53:30.479Z,99.24
2023-11-18T01:58:34.242Z,99.67
2023-11-18T02:03:36.999Z,99.76
2023-11-18T02:08:40.178Z,99.57
2023-11-18T02:13:45.975Z,99.33
2023-11-18T02:18:50.635Z,98.85
2023-11-18T02:23:55.468Z,98.71
2023-11-18T02:28:57.938Z,98.88
2023-11-18T02:34:14.034Z,98.95
2023-11-18T02:39:30.376Z,98.87
2023-11-18T02:44:33.932Z,98.79
2023-11-18T02:49:38.040Z,98.86
2023-11-18T02:54:40.255Z,99.06
2023-11-18T02:59:42.684Z,99.08
2023-11-18T03:04:46.153Z,99.00
2023-11-18T03:09:48.449Z,99.07
2023-11-18T03:14:50.727Z,98.91
2023-11-18T03:19:53.131Z,98.69
2023-11-18T03:24:55.920Z,99.04
2023-11-18T03:29:58.555Z,99.30
2023-11-18T03:35:01.042Z,99.12
2023-11-18T03:40:03.946Z,98.74
2023-11-18T03:45:07.923Z,98.90
2023-11-18T03:50:10.767Z,98.94
2023-11-18T03:55:14.541Z,99.17
2023-11-18T04:00:17.980Z,99.14
2023-11-18T04:05:21.741Z,98.98
2023-11-18T04:10:24.416Z,98.88
2023-11-18T04:15:28.441Z,98.91
2023-11-18T04:20:30.804Z,99.02
2023-11-18T04:25:33.383Z,99.03
2023-11-18T04:30:36.453Z,98.72
2023-11-18T04:35:38.750Z,98.94
2023-11-18T04:40:42.473Z,99.14
2023-11-18T04:45:45.461Z,99.16
2023-11-18T04:50:48.584Z,99.00
2023-11-18T04:55:57.745Z,99.08
2023-11-18T05:01:00.725Z,99.07
2023-11-18T05:06:03.274Z,99.09
2023-11-18T05:11:08.216Z,98.98
2023-11-18T05:16:11.932Z,98.92
2023-11-18T05:21:18.409Z,98.72
2023-11-18T05:26:21.582Z,98.47
2023-11-18T05:31:24.337Z,98.04
2023-11-18T05:36:31.563Z,98.05
2023-11-18T05:41:36.574Z,97.89
2023-11-18T05:46:40.586Z,97.91
2023-11-18T05:51:45.967Z,98.08
2023-11-18T05:56:48.187Z,98.20
2023-11-18T06:01:51.330Z,98.33
2023-11-18T06:06:55.646Z,98.42
2023-11-18T06:12:03.514Z,98.39
2023-11-18T06:17:08.685Z,98.20
2023-11-18T06:22:11.950Z,98.44
2023-11-18T06:27:14.122Z,98.48
2023-11-18T06:32:17.407Z,97.96
2023-11-18T06:37:20.215Z,97.79
2023-11-18T06:42:24.957Z,97.86
2023-11-18T06:47:27.646Z,97.77
2023-11-18T06:52:30.411Z,97.59
2023-11-18T06:57:33.783Z,97.48
2023-11-18T07:02:36.537Z,97.23
2023-11-18T07:07:38.929Z,97.05
2023-11-18T07:12:41.252Z,96.78
2023-11-18T07:17:45.103Z,96.62
2023-11-18T07:23:47.338Z,96.55
2023-11-18T07:29:10.738Z,96.18
2023-11-18T07:34:18.374Z,95.86
2023-11-18T07:39:26.233Z,95.40
2023-11-18T07:44:30.576Z,95.50
2023-11-18T07:49:37.095Z,95.77
2023-11-18T07:54:40.670Z,95.65
2023-11-18T07:59:43.829Z,95.60
2023-11-18T08:04:47.721Z,95.49
2023-11-18T08:09:51.231Z,95.42
2023-11-18T08:14:54.963Z,95.12
2023-11-18T08:19:57.862Z,94.74
2023-11-18T08:25:02.466Z,94.80
2023-11-18T08:30:22.349Z,94.76
2023-11-18T08:35:30.761Z,94.39
2023-11-18T08:40:33.060Z,93.96
2023-11-18T08:45:38.807Z,94.01
2023-11-18T08:51:37.879Z,94.32
2023-11-18T08:56:44.259Z,94.46
2023-11-18T09:02:08.557Z,94.77
2023-11-18T09:07:31.952Z,94.98
2023-11-18T09:12:45.914Z,95.03
2023-11-18T09:18:11.894Z,95.23
2023-11-18T09:23:19.120Z,94.89
2023-11-18T09:28:22.734Z,94.62
2023-11-18T09:33:28.126Z,94.67
2023-11-18T09:38:31.798Z,94.85
2023-11-18T09:43:46.953Z,94.55
2023-11-18T09:49:00.905Z,93.95
2023-11-18T09:54:11.466Z,94.08
2023-11-18T09:59:32.417Z,94.29
2023-11-18T10:04:41.692Z,93.92
2023-11-18T10:10:00.144Z,93.58
2023-11-18T10:15:06.527Z,93.61
2023-11-18T10:21:01.231Z,93.24
2023-11-18T10:26:46.095Z,92.90
2023-11-18T10:32:19.659Z,92.64
2023-11-18T10:37:51.629Z,92.92
2023-11-18T10:43:03.604Z,92.87
2023-11-18T10:48:21.473Z,92.61
2023-11-18T10:53:32.408Z,92.32
2023-11-18T10:58:44.297Z,92.33
2023-11-18T11:04:02.637Z,92.20
2023-11-18T11:09:15.992Z,92.45
2023-11-18T11:14:22.791Z,92.43
2023-11-18T11:20:35.316Z,92.31
2023-11-18T11:25:49.858Z,92.26
2023-11-18T11:31:12.443Z,91.98
2023-11-18T11:36:41.990Z,91.44
2023-11-18T11:41:58.522Z,91.53
2023-11-18T11:47:17.180Z,91.72
2023-11-18T11:53:23.182Z,91.53
2023-11-18T11:58:47.755Z,91.12
2023-11-18T12:03:59.729Z,90.92
2023-11-18T12:09:18.507Z,91.19
2023-11-18T12:14:24.515Z,91.18
2023-11-18T12:19:40.335Z,90.93
2023-11-18T12:25:08.948Z,90.95
2023-11-18T12:30:39.607Z,91.04
2023-11-18T12:35:52.892Z,91.08
2023-11-18T12:41:12.914Z,91.04
2023-11-18T12:46:38.889Z,90.61
2023-11-18T12:51:41.388Z,90.44
2023-11-18T12:56:45.833Z,90.54
2023-11-18T13:01:55.199Z,89.96
2023-11-18T13:06:59.920Z,90.08
2023-11-18T13:12:07.202Z,89.97
2023-11-18T13:17:14.645Z,89.75
2023-11-18T13:22:20.410Z,89.61
2023-11-18T13:27:24.405Z,89.76
2023-11-18T13:32:28.201Z,90.35
2023-11-18T13:37:30.592Z,89.94
2023-11-18T13:42:34.881Z,89.68
2023-11-18T13:47:38.593Z,89.25
2023-11-18T13:52:41.185Z,89.09
2023-11-18T13:57:44.034Z,88.27
2023-11-18T14:02:49.522Z,88.38
2023-11-18T14:07:57.109Z,88.00
2023-11-18T14:13:10.790Z,88.23
2023-11-18T14:18:14.671Z,88.34
2023-11-18T14:23:17.424Z,88.57
2023-11-18T14:28:20.237Z,88.70
2023-11-18T14:33:22.545Z,88.68
2023-11-18T14:38:24.899Z,88.99
2023-11-18T14:43:29.327Z,89.12
2023-11-18T14:48:31.592Z,88.87
2023-11-18T14:53:37.920Z,88.49
2023-11-18T14:58:40.325Z,88.43
2023-11-18T15:04:03.923Z,88.28
2023-11-18T15:09:06.701Z,88.17
2023-11-18T15:14:09.204Z,88.21
2023-11-18T15:19:13.144Z,88.17
2023-11-18T15:24:15.557Z,88.44
2023-11-18T15:29:18.142Z,88.44
2023-11-18T15:34:20.904Z,88.09
2023-11-18T15:39:24.818Z,88.17
2023-11-18T15:44:29.999Z,88.28
2023-11-18T15:49:32.265Z,88.75
2023-11-18T15:54:35.103Z,88.44
2023-11-18T15:59:37.932Z,88.55
2023-11-18T16:04:41.194Z,88.46
2023-11-18T16:09:43.425Z,88.20
2023-11-18T16:14:47.017Z,88.56
2023-11-18T16:19:51.196Z,88.52
2023-11-18T16:24:53.453Z,87.94
2023-11-18T16:29:55.857Z,87.92
2023-11-18T16:34:58.638Z,87.68
2023-11-18T16:40:00.823Z,87.83
2023-11-18T16:45:03.245Z,88.02
2023-11-18T16:50:06.685Z,87.85
2023-11-18T16:55:10.243Z,87.98
2023-11-18T17:00:31.597Z,88.17
2023-11-18T17:05:34.544Z,88.46
2023-11-18T17:10:37.630Z,88.75
2023-11-18T17:15:40.268Z,88.49
2023-11-18T17:20:42.818Z,88.55
2023-11-18T17:25:45.295Z,89.07
2023-11-18T17:30:50.792Z,89.11
2023-11-18T17:35:53.393Z,89.04
2023-11-18T17:40:55.811Z,89.02
2023-11-18T17:45:58.515Z,89.02
2023-11-18T17:51:01.180Z,89.07
2023-11-18T17:56:03.686Z,89.14
2023-11-18T18:01:07.869Z,89.35
2023-11-18T18:06:14.484Z,88.95
2023-11-18T18:11:18.252Z,88.76
2023-11-18T18:16:21.699Z,88.61
2023-11-18T18:21:26.774Z,88.54
2023-11-18T18:26:29.353Z,88.21
2023-11-18T18:31:33.438Z,87.51
2023-11-18T18:36:37.890Z,87.84
2023-11-18T18:41:40.235Z,87.71
2023-11-18T18:46:43.278Z,88.14
2023-11-18T18:51:45.857Z,88.30
2023-11-18T18:56:48.714Z,88.03
2023-11-18T19:02:51.419Z,87.84
2023-11-18T19:09:12.830Z,87.73
2023-11-18T19:15:15.012Z,87.87
2023-11-18T19:20:37.282Z,87.78
2023-11-18T19:25:39.572Z,87.92
2023-11-18T19:30:41.728Z,87.79
2023-11-18T19:35:44.397Z,87.76
2023-11-18T19:40:47.140Z,87.49
2023-11-18T19:45:50.337Z,87.69
2023-11-18T20:20:34.314Z,84.32
2023-11-18T20:25:46.773Z,85.14
2023-11-18T20:30:50.643Z,85.49
2023-11-18T20:35:57.822Z,85.29
2023-11-18T20:42:02.054Z,85.42
2023-11-18T20:47:25.861Z,86.17
2023-11-18T20:53:28.128Z,86.01
2023-11-18T20:58:55.993Z,85.97
2023-11-18T21:03:58.387Z,86.71
2023-11-18T21:09:00.826Z,87.02
2023-11-18T21:14:04.874Z,86.78
2023-11-18T21:19:09.315Z,87.07
2023-11-18T21:24:13.112Z,87.43
2023-11-18T21:29:19.031Z,87.57
2023-11-18T21:34:21.749Z,88.09
2023-11-18T21:39:24.738Z,88.36
2023-11-18T21:44:28.523Z,88.38
2023-11-18T21:49:31.206Z,88.47
2023-11-18T21:54:37.091Z,88.52
2023-11-18T21:59:40.337Z,88.23
2023-11-18T22:04:42.847Z,88.76
2023-11-18T22:09:48.534Z,89.25
2023-11-18T22:14:51.060Z,89.26
2023-11-18T22:19:54.000Z,89.27
2023-11-18T22:24:58.072Z,88.73
2023-11-18T22:30:04.939Z,88.66
2023-11-18T22:35:11.313Z,88.47
2023-11-18T22:41:13.264Z,88.43
2023-11-18T22:47:35.177Z,88.92
2023-11-18T22:53:57.151Z,89.66
2023-11-18T22:59:26.180Z,90.02
2023-11-18T23:04:29.768Z,90.20
2023-11-18T23:09:33.462Z,90.39
2023-11-18T23:14:36.421Z,90.87
2023-11-18T23:19:47.679Z,91.04
2023-11-18T23:24:53.967Z,90.81
2023-11-18T23:29:56.571Z,90.67
2023-11-18T23:34:59.563Z,90.80
2023-11-18T23:40:07.064Z,90.97
2023-11-18T23:45:16.120Z,90.45
2023-11-18T23:50:18.628Z,89.98
2023-11-18T23:55:20.999Z,90.03
